Lansing, MI (48901)

1:59 PM EDT on March 27, 2017 (GMT -0400)
Shaw Estates | | Change Station

Elev 869 ft 42.73 °N, 84.54 °W | Updated 1 minute ago

Overcast
Overcast
54.1 °F
Feels Like 54.1 °F
N
0.0
Wind Variable Wind from NW
Gusts 0.0 mph

Today
High -- | Low -- °F
--% Chance of Precip.
Yesterday
High -- | Low -- °F
Precip. -- in
Pressure 29.93 in
Visibility 10.0 miles
Clouds Mostly Cloudy 1200 ft
Overcast 3400 ft
Dew Point 47 °F
Humidity 77%
Rainfall 0.00 in
Snow Depth Not available.
7:28 AM 7:58 PM
Waning Crescent, 0% visible
METAR KLAN 271753Z 26008KT 10SM BKN012 OVC034 12/07 A2992 RMK AO2 SLP134 T01170072 10117 20089 58005
Pressure 29.93 in
Visibility 10.0 miles
Clouds Mostly Cloudy 1200 ft
Overcast 3400 ft
Dew Point 47 °F
Humidity 77%
Rainfall 0.00 in
Snow Depth Not available.
7:28 AM 7:58 PM
Waning Crescent, 0% visible
METAR KLAN 271753Z 26008KT 10SM BKN012 OVC034 12/07 A2992 RMK AO2 SLP134 T01170072 10117 20089 58005

Get Your Daily Forecast Email!

Thanks for signing up!

Be on the lookout for a verification email in your inbox.

You'll start receiving severe weather alerts in your inbox..

×

10-Day Weather Forecast

Almanac

Astronomy

Mar. 27, 2017 Rise Set
Actual Time
Civil Twilight
Nautical Twilight
Astronomical Twilight
Moon
Length of Visible Light
Length of Day
Tomorrow will be .
, % of the Moon is Illuminated

Today's Extremes

State Highs State Lows

Community

WunderPhotos

Upload Photos

1,962,540 photos uploaded!

WunderBlog® & News

Nearby

Air Quality

  Air Quality AQ Index Pollutant
Not available.

Snow Depth

Station Depth Elevation

Earthquake Activity

City Distance Mag. Time & Date
Minimum magnitude displayed is 2.5.

Earthquake Activity

City Distance Mag. Time & Date
Minimum magnitude displayed is 2.5.

Coastal Water Temperatures

Place Temperature

Stations

Nearby Weather Stations

Station Location Temp. Windchill Dew Point Humidity Wind Precip. Elev Updated Type
                   

Watches & Warnings

Flood Advisory
Issued: 10:34 AM EDT Mar. 27, 2017 – National Weather Service

The flood advisory is extended for
the Sycamore Creek at Holt
* until Wednesday evening.
* At 09 PM Sunday the stage was 7.1 feet.
* Bankfull stage is 6.0 feet.
* Flood stage is 8.0 feet.
* Forecast, the river will continue to fall.
* Impact, at 8.0 feet... expect minor flooding of low lying areas
adjacent to the river, in the Lansing Municipal Golf course and
sections of east Mt. Hope Road.


Lat... Lon 4271 8455 4268 8455 4264 8451 4264 8445
      4268 8449 4271 8451